Time;durP1;ratioP1;P1;durP2;ratioP2;P2;SDS_P1;SDS_P2;PMS_P1;PMS_P2;Temp;Humidity;BMP_temperature;BMP_pressure;BME280_temperature;BME280_humidity;BME280_pressure;Samples;Min_cycle;Max_cycle;Signal;HPM_P1;HPM_P2
2021/08/15 00:01:44;;;;;;;;;;;;;;;25.54;61.71;101193.75;5067729;28;1720;-46
2021/08/15 00:04:10;;;;;;;;;;;;;;;25.49;61.57;101182.59;5059059;28;1635;-46
2021/08/15 00:06:38;;;;;;;;;;;;;;;25.52;61.01;101193.06;5063894;28;1885;-47
2021/08/15 00:09:05;;;;;;;;;;;;;;;25.51;60.99;101192.22;5063148;28;1914;-45
2021/08/15 00:11:32;;;;;;;;;;;;;;;25.53;60.99;101194.78;5061604;28;1504;-46
2021/08/15 00:13:59;;;;;;;;;;;;;;;25.55;61.67;101195.44;5061786;28;1610;-46
2021/08/15 00:16:26;;;;;;;;;;;;;;;25.52;61.68;101187.66;5059743;28;1657;-47
2021/08/15 00:18:52;;;;;;;;;;;;;;;25.53;61.87;101189.34;5062803;28;1341;-46
2021/08/15 00:21:19;;;;;;;;;;;;;;;25.50;61.67;101195.94;5070820;28;2105;-45
2021/08/15 00:23:46;;;;;;;;;;;;;;;25.51;61.69;101184.09;5061894;28;1680;-46
2021/08/15 00:26:13;;;;;;;;;;;;;;;25.47;61.01;101184.63;5061573;28;1717;-47
2021/08/15 00:28:39;;;;;;;;;;;;;;;25.52;61.06;101179.53;5062791;28;1971;-46
2021/08/15 00:31:06;;;;;;;;;;;;;;;25.49;61.74;101186.13;5060525;28;1646;-46
2021/08/15 00:33:33;;;;;;;;;;;;;;;25.49;61.74;101183.41;5051420;28;1792;-45
2021/08/15 00:36:00;;;;;;;;;;;;;;;25.52;61.17;101187.66;5057842;28;1829;-46
2021/08/15 00:38:26;;;;;;;;;;;;;;;25.49;61.08;101183.41;5053839;28;1594;-46
2021/08/15 00:40:54;;;;;;;;;;;;;;;25.48;61.75;101179.00;5054512;28;1958;-46
2021/08/15 00:43:21;;;;;;;;;;;;;;;25.48;61.15;101170.03;5048881;28;1417;-46
2021/08/15 00:45:47;;;;;;;;;;;;;;;25.49;60.91;101172.59;5049482;28;1556;-46
2021/08/15 00:48:14;;;;;;;;;;;;;;;25.51;61.57;101169.72;5058550;28;1514;-46
2021/08/15 00:50:40;;;;;;;;;;;;;;;25.49;61.03;101167.16;5051350;28;1902;-46
2021/08/15 00:53:07;;;;;;;;;;;;;;;25.46;61.00;101162.09;5055902;28;1830;-47
2021/08/15 00:55:33;;;;;;;;;;;;;;;25.46;61.57;101163.94;5057360;28;1523;-46
2021/08/15 00:58:01;;;;;;;;;;;;;;;25.50;61.44;101168.84;5054337;28;1856;-46
2021/08/15 01:00:29;;;;;;;;;;;;;;;25.48;61.55;101151.94;5045764;28;1867;-46
2021/08/15 01:02:56;;;;;;;;;;;;;;;25.47;61.31;101173.78;5052973;28;1695;-46
2021/08/15 01:05:22;;;;;;;;;;;;;;;25.46;60.87;101161.25;5044575;28;1923;-47
2021/08/15 01:07:49;;;;;;;;;;;;;;;25.48;60.85;101162.75;5057631;28;1706;-45
2021/08/15 01:10:16;;;;;;;;;;;;;;;25.48;61.65;101167.34;5056209;28;1910;-46
2021/08/15 01:12:42;;;;;;;;;;;;;;;25.45;61.39;101168.53;5055130;28;1650;-45
2021/08/15 01:15:10;;;;;;;;;;;;;;;25.51;61.07;101175.13;5054405;28;2060;-46
2021/08/15 01:17:37;;;;;;;;;;;;;;;25.49;61.94;101160.91;5056498;28;1818;-45
2021/08/15 01:20:04;;;;;;;;;;;;;;;25.46;61.94;101163.94;5047371;28;1671;-46
2021/08/15 01:22:34;;;;;;;;;;;;;;;25.46;60.90;101162.09;5055669;28;1900;-46
2021/08/15 01:25:05;;;;;;;;;;;;;;;25.48;61.52;101170.88;5057041;28;1767;-46
2021/08/15 01:27:33;;;;;;;;;;;;;;;25.47;60.81;101171.06;5056169;28;1754;-47
2021/08/15 01:30:01;;;;;;;;;;;;;;;25.47;61.60;101168.38;5057499;28;1976;-45
2021/08/15 01:32:28;;;;;;;;;;;;;;;25.47;61.52;101166.50;5052877;28;1323;-45
2021/08/15 01:34:55;;;;;;;;;;;;;;;25.45;61.14;101175.81;5049827;28;1595;-46
2021/08/15 01:37:22;;;;;;;;;;;;;;;25.48;61.23;101165.47;5054553;28;1837;-45
2021/08/15 01:39:48;;;;;;;;;;;;;;;25.44;61.13;101163.28;5052201;28;1669;-46
2021/08/15 01:42:15;;;;;;;;;;;;;;;25.48;61.22;101172.75;5054777;28;1534;-46
2021/08/15 01:44:41;;;;;;;;;;;;;;;25.46;61.78;101164.78;5055029;28;2215;-46
2021/08/15 01:47:09;;;;;;;;;;;;;;;25.43;60.98;101169.69;5054498;28;1527;-46
2021/08/15 01:49:36;;;;;;;;;;;;;;;25.44;61.89;101174.09;5052361;28;1910;-46
2021/08/15 01:52:02;;;;;;;;;;;;;;;25.42;61.41;101171.56;5055719;28;1817;-45
2021/08/15 01:54:29;;;;;;;;;;;;;;;25.43;61.20;101161.56;5054704;28;1725;-46
2021/08/15 01:56:55;;;;;;;;;;;;;;;25.44;61.60;101179.53;5055848;28;1733;-46
2021/08/15 01:59:26;;;;;;;;;;;;;;;25.46;61.70;101178.31;5056881;28;1831;-45
2021/08/15 02:01:55;;;;;;;;;;;;;;;25.46;61.24;101177.50;5151818;22;3785;-90
2021/08/15 02:04:22;;;;;;;;;;;;;;;25.44;61.68;101179.53;5052294;28;1600;-90
2021/08/15 02:06:50;;;;;;;;;;;;;;;25.42;61.41;101189.66;5039090;28;1672;-91
2021/08/15 02:09:17;;;;;;;;;;;;;;;25.40;61.19;101176.28;5038798;28;1969;-89
2021/08/15 02:11:43;;;;;;;;;;;;;;;25.45;62.13;101182.06;5038021;28;1480;-91
2021/08/15 02:14:11;;;;;;;;;;;;;;;25.45;61.90;101183.94;5044698;28;1778;-92
2021/08/15 02:16:37;;;;;;;;;;;;;;;25.45;61.92;101184.78;5047111;28;1616;-91
2021/08/15 02:19:04;;;;;;;;;;;;;;;25.44;60.89;101191.19;5053394;28;1439;-90
2021/08/15 02:21:32;;;;;;;;;;;;;;;25.42;61.01;101176.13;5050070;28;1677;-90
2021/08/15 02:23:58;;;;;;;;;;;;;;;25.42;61.08;101185.09;5057686;28;1490;-90
2021/08/15 02:26:25;;;;;;;;;;;;;;;25.47;61.84;101184.63;5041604;28;1343;-89
2021/08/15 02:28:51;;;;;;;;;;;;;;;25.43;61.00;101172.41;5038483;28;1692;-88
2021/08/15 02:31:18;;;;;;;;;;;;;;;25.44;61.85;101177.66;5037867;28;1902;-90
2021/08/15 02:33:44;;;;;;;;;;;;;;;25.40;61.85;101177.13;5042386;28;1311;-91
2021/08/15 02:36:11;;;;;;;;;;;;;;;25.40;61.82;101181.72;5050662;28;1575;-89
2021/08/15 02:38:39;;;;;;;;;;;;;;;25.46;61.67;101202.69;5051922;28;1619;-89
2021/08/15 02:41:05;;;;;;;;;;;;;;;25.48;61.96;101194.41;5049343;28;1670;-89
2021/08/15 02:43:32;;;;;;;;;;;;;;;25.43;61.87;101184.09;5039327;28;1615;-87
2021/08/15 02:45:59;;;;;;;;;;;;;;;25.43;61.89;101173.25;5036920;28;1604;-89
2021/08/15 02:48:26;;;;;;;;;;;;;;;25.39;62.01;101183.59;5040301;28;1635;-87
2021/08/15 02:50:52;;;;;;;;;;;;;;;25.42;61.81;101185.09;5044764;28;1981;-87
2021/08/15 02:53:19;;;;;;;;;;;;;;;25.42;61.83;101181.56;5037824;28;1606;-88
2021/08/15 02:55:47;;;;;;;;;;;;;;;25.44;61.32;101195.75;5046646;28;1584;-88
2021/08/15 02:58:13;;;;;;;;;;;;;;;25.44;61.82;101195.75;5032439;28;1348;-88
2021/08/15 03:00:40;;;;;;;;;;;;;;;25.39;61.54;101175.47;5038151;28;1734;-89
2021/08/15 03:03:06;;;;;;;;;;;;;;;25.42;61.70;101192.38;5046763;28;1753;-87
2021/08/15 03:05:33;;;;;;;;;;;;;;;25.42;61.13;101189.66;5046434;28;1467;-88
2021/08/15 03:08:00;;;;;;;;;;;;;;;25.39;60.93;101189.00;5048020;28;1580;-87
2021/08/15 03:10:27;;;;;;;;;;;;;;;25.36;61.31;101188.47;5039943;28;1975;-87
2021/08/15 03:12:55;;;;;;;;;;;;;;;25.37;61.08;101191.03;5053609;28;1589;-89
2021/08/15 03:15:21;;;;;;;;;;;;;;;25.36;61.01;101193.88;5044465;28;1623;-87
2021/08/15 03:17:48;;;;;;;;;;;;;;;25.36;61.11;101199.31;5036281;28;1347;-87
2021/08/15 03:20:15;;;;;;;;;;;;;;;25.42;61.68;101203.22;5046278;28;1654;-88
2021/08/15 03:22:41;;;;;;;;;;;;;;;25.38;62.23;101198.13;5050497;28;1545;-88
2021/08/15 03:25:08;;;;;;;;;;;;;;;25.41;61.01;101191.53;5055191;28;1883;-88
2021/08/15 03:27:35;;;;;;;;;;;;;;;25.36;61.98;101181.19;5046951;28;1600;-90
2021/08/15 03:30:04;;;;;;;;;;;;;;;25.41;61.29;101202.38;5047259;28;1910;-87
2021/08/15 03:32:30;;;;;;;;;;;;;;;25.35;62.03;101193.06;5046865;28;1678;-87
2021/08/15 03:34:57;;;;;;;;;;;;;;;25.38;61.84;101202.69;5057101;28;1571;-90
2021/08/15 03:37:23;;;;;;;;;;;;;;;25.40;61.90;101206.06;5056671;28;1587;-87
2021/08/15 03:39:50;;;;;;;;;;;;;;;25.38;61.66;101200.81;5057107;28;1410;-88
2021/08/15 03:42:16;;;;;;;;;;;;;;;25.36;61.81;101194.72;5067391;28;1531;-88
2021/08/15 03:44:43;;;;;;;;;;;;;;;25.38;61.89;101187.28;5045319;28;1722;-88
2021/08/15 03:47:11;;;;;;;;;;;;;;;25.39;61.37;101207.94;5049232;28;1659;-88
2021/08/15 03:49:37;;;;;;;;;;;;;;;25.38;61.24;101202.69;5046614;28;1988;-89
2021/08/15 03:52:05;;;;;;;;;;;;;;;25.37;61.91;101190.19;5034281;28;1382;-89
2021/08/15 03:54:31;;;;;;;;;;;;;;;25.40;61.47;101193.38;5039233;28;1360;-87
2021/08/15 03:56:58;;;;;;;;;;;;;;;25.41;61.86;101191.53;5036990;28;1417;-88
2021/08/15 03:59:25;;;;;;;;;;;;;;;25.40;61.17;101189.84;5037129;28;1564;-87
2021/08/15 04:01:52;;;;;;;;;;;;;;;25.40;61.32;101190.66;5041696;28;1620;-89
2021/08/15 04:04:20;;;;;;;;;;;;;;;25.41;61.73;101194.25;5050905;28;1674;-87
2021/08/15 04:06:46;;;;;;;;;;;;;;;25.45;61.88;101197.47;5040498;28;1406;-87
2021/08/15 04:09:13;;;;;;;;;;;;;;;25.43;61.19;101197.63;5035848;28;1591;-89
2021/08/15 04:11:40;;;;;;;;;;;;;;;25.46;61.06;101199.16;5054205;28;1906;-87
2021/08/15 04:14:06;;;;;;;;;;;;;;;25.48;61.06;101184.41;5049572;28;1336;-88
2021/08/15 04:16:33;;;;;;;;;;;;;;;25.49;61.08;101193.41;5046741;28;1327;-88
2021/08/15 04:18:59;;;;;;;;;;;;;;;25.48;60.63;101189.00;5052051;28;1627;-89
2021/08/15 04:21:28;;;;;;;;;;;;;;;25.52;60.75;101193.06;5049656;28;1351;-87
2021/08/15 04:23:55;;;;;;;;;;;;;;;25.60;61.54;101195.75;5040286;28;1343;-88
2021/08/15 04:26:21;;;;;;;;;;;;;;;25.66;60.65;101207.78;5040627;28;1370;-89
2021/08/15 04:28:49;;;;;;;;;;;;;;;25.71;60.41;101195.44;5047665;28;1469;-88
2021/08/15 04:31:15;;;;;;;;;;;;;;;25.80;60.99;101207.97;5051625;28;1903;-87
2021/08/15 04:33:42;;;;;;;;;;;;;;;25.90;60.07;101196.09;5055212;28;1610;-89
2021/08/15 04:36:09;;;;;;;;;;;;;;;26.05;59.43;101196.28;5051306;28;1622;-89
2021/08/15 04:38:37;;;;;;;;;;;;;;;26.21;59.77;101187.28;5050595;28;1605;-87
2021/08/15 04:41:03;;;;;;;;;;;;;;;26.27;58.93;101203.69;5046095;28;1588;-87
2021/08/15 04:43:31;;;;;;;;;;;;;;;26.42;58.98;101195.66;5053734;28;1611;-89
2021/08/15 04:45:57;;;;;;;;;;;;;;;26.43;58.44;101189.25;5049161;28;1618;-88
2021/08/15 04:48:25;;;;;;;;;;;;;;;26.21;59.42;101169.16;5046273;28;1583;-88
2021/08/15 04:50:52;;;;;;;;;;;;;;;26.00;60.31;101202.22;5035941;28;1906;-89
2021/08/15 04:53:18;;;;;;;;;;;;;;;25.86;60.08;101200.16;5047085;28;1611;-87
2021/08/15 04:55:46;;;;;;;;;;;;;;;25.73;60.70;101179.03;5044472;28;1383;-88
2021/08/15 04:58:13;;;;;;;;;;;;;;;25.68;61.15;101203.88;5049304;28;1579;-88
2021/08/15 05:00:39;;;;;;;;;;;;;;;25.63;61.24;101190.03;5067336;28;1548;-88
2021/08/15 05:03:07;;;;;;;;;;;;;;;25.65;61.20;101198.81;5038169;28;1630;-89
2021/08/15 05:05:33;;;;;;;;;;;;;;;25.66;60.76;101200.50;5035540;28;1619;-89
2021/08/15 05:08:01;;;;;;;;;;;;;;;25.62;61.47;101199.16;5045261;28;1595;-88
2021/08/15 05:10:27;;;;;;;;;;;;;;;25.62;61.53;101195.59;5044036;28;1977;-89
2021/08/15 05:12:55;;;;;;;;;;;;;;;25.67;60.44;101207.63;5037439;28;1666;-87
2021/08/15 05:15:22;;;;;;;;;;;;;;;25.60;61.22;101191.22;5038777;28;1374;-87
2021/08/15 05:17:48;;;;;;;;;;;;;;;25.64;61.47;101197.13;5039424;28;1597;-89
2021/08/15 05:20:15;;;;;;;;;;;;;;;25.63;61.31;101189.19;5053582;28;1579;-87
2021/08/15 05:22:41;;;;;;;;;;;;;;;25.65;61.36;101193.41;5048968;28;1521;-88
2021/08/15 05:25:08;;;;;;;;;;;;;;;25.65;61.36;101188.00;5042176;28;1475;-89
2021/08/15 05:27:34;;;;;;;;;;;;;;;25.65;60.66;101188.00;5039569;28;1613;-88
2021/08/15 05:30:04;;;;;;;;;;;;;;;25.67;60.75;101190.53;5037703;28;1902;-89
2021/08/15 05:32:31;;;;;;;;;;;;;;;25.66;61.02;101189.66;5054547;28;1757;-87
2021/08/15 05:34:57;;;;;;;;;;;;;;;25.72;60.45;101193.56;5053299;28;1539;-88
2021/08/15 05:37:24;;;;;;;;;;;;;;;25.70;61.12;101201.84;5040586;28;1391;-89
2021/08/15 05:39:50;;;;;;;;;;;;;;;25.71;61.43;101195.44;5043673;28;1433;-89
2021/08/15 05:42:17;;;;;;;;;;;;;;;25.70;60.72;101188.31;5038169;28;1599;-91
2021/08/15 05:44:44;;;;;;;;;;;;;;;25.74;60.54;101203.22;5032669;28;1482;-89
2021/08/15 05:47:12;;;;;;;;;;;;;;;25.71;61.12;101192.72;5048770;28;1355;-89
2021/08/15 05:49:38;;;;;;;;;;;;;;;25.72;60.56;101188.16;5046867;28;1595;-90
2021/08/15 05:52:05;;;;;;;;;;;;;;;25.77;61.33;101191.22;5046402;28;1987;-90
2021/08/15 05:54:31;;;;;;;;;;;;;;;25.75;61.29;101185.13;5046436;28;1422;-90
2021/08/15 05:56:58;;;;;;;;;;;;;;;25.76;61.48;101175.97;5043818;28;1480;-89
2021/08/15 05:59:24;;;;;;;;;;;;;;;25.77;60.69;101185.78;5038537;28;1611;-88
2021/08/15 06:01:52;;;;;;;;;;;;;;;25.80;60.68;101186.31;5041538;28;1472;-86
2021/08/15 06:04:20;;;;;;;;;;;;;;;25.79;61.13;101187.31;5045395;28;1333;-88
2021/08/15 06:06:47;;;;;;;;;;;;;;;25.84;60.78;101186.78;5048558;28;1398;-87
2021/08/15 06:09:14;;;;;;;;;;;;;;;25.85;61.01;101182.22;5037607;28;1666;-89
2021/08/15 06:11:40;;;;;;;;;;;;;;;25.86;60.49;101183.91;5033910;28;1914;-91
2021/08/15 06:14:08;;;;;;;;;;;;;;;25.90;61.36;101185.25;5048174;28;1663;-89
2021/08/15 06:16:34;;;;;;;;;;;;;;;25.87;61.03;101174.78;5041342;28;1466;-92
2021/08/15 06:19:01;;;;;;;;;;;;;;;25.88;61.06;101179.16;5048818;28;1347;-91
2021/08/15 06:21:29;;;;;;;;;;;;;;;25.89;61.21;101178.16;5056941;28;1709;-90
2021/08/15 06:23:56;;;;;;;;;;;;;;;25.89;61.21;101172.75;5041854;28;1599;-89
2021/08/15 06:26:22;;;;;;;;;;;;;;;25.91;61.24;101173.44;5047084;28;1600;-91
2021/08/15 06:28:49;;;;;;;;;;;;;;;25.91;61.13;101166.16;5048269;28;1417;-88
2021/08/15 06:31:15;;;;;;;;;;;;;;;25.91;61.15;101170.75;5053358;28;1914;-91
2021/08/15 06:33:42;;;;;;;;;;;;;;;25.91;60.44;101160.75;5046732;28;1576;-89
2021/08/15 06:36:08;;;;;;;;;;;;;;;25.93;60.46;101166.00;5040107;28;1478;-89
2021/08/15 06:38:36;;;;;;;;;;;;;;;25.92;60.53;101172.41;5051142;28;1320;-91
2021/08/15 06:41:03;;;;;;;;;;;;;;;25.90;60.52;101163.59;5047355;28;1639;-88
2021/08/15 06:43:29;;;;;;;;;;;;;;;25.95;60.87;101172.09;5054995;28;1539;-91
2021/08/15 06:45:56;;;;;;;;;;;;;;;25.96;60.51;101168.34;5052029;28;1439;-91
2021/08/15 06:48:23;;;;;;;;;;;;;;;25.94;61.22;101162.25;5048939;28;1354;-91
2021/08/15 06:50:53;;;;;;;;;;;;;;;25.94;60.36;101164.97;5039228;28;1972;-91
2021/08/15 06:53:20;;;;;;;;;;;;;;;25.99;60.70;101168.00;5054316;28;1604;-90
2021/08/15 06:55:48;;;;;;;;;;;;;;;25.96;61.13;101157.50;5046764;28;1384;-89
2021/08/15 06:58:16;;;;;;;;;;;;;;;25.98;60.60;101160.88;5038634;28;1336;-90
2021/08/15 07:00:42;;;;;;;;;;;;;;;25.99;60.79;101157.16;5044327;28;1590;-89
2021/08/15 07:03:09;;;;;;;;;;;;;;;25.98;61.21;101160.88;5048319;28;1710;-90
2021/08/15 07:05:35;;;;;;;;;;;;;;;26.01;61.12;101163.25;5049414;28;1627;-89
2021/08/15 07:08:02;;;;;;;;;;;;;;;25.99;61.30;101151.75;5053515;28;1754;-88
2021/08/15 07:10:28;;;;;;;;;;;;;;;25.99;60.85;101162.59;5039136;28;1909;-89
2021/08/15 07:12:58;;;;;;;;;;;;;;;25.98;60.53;101147.34;5041523;28;1710;-90
2021/08/15 07:15:28;;;;;;;;;;;;;;;25.98;60.71;101155.47;5047450;28;1752;-92
2021/08/15 07:17:55;;;;;;;;;;;;;;;25.99;60.52;101152.59;5043988;28;1626;-89
2021/08/15 07:20:23;;;;;;;;;;;;;;;26.01;61.04;101160.56;5051541;28;1407;-92
2021/08/15 07:22:49;;;;;;;;;;;;;;;25.99;60.53;101149.03;5041177;28;1284;-90
2021/08/15 07:25:16;;;;;;;;;;;;;;;26.02;60.85;101167.66;5037687;28;1313;-91
2021/08/15 07:27:43;;;;;;;;;;;;;;;25.99;60.39;101149.88;5053334;28;1625;-89
2021/08/15 07:30:12;;;;;;;;;;;;;;;26.01;61.32;101144.28;5041132;28;1649;-90
2021/08/15 07:32:49;;;;;;;;;;;;;;;26.05;61.34;101144.81;5043921;28;1910;-88
2021/08/15 07:35:15;;;;;;;;;;;;;;;26.05;60.94;101147.50;5053137;28;1679;-90
2021/08/15 07:37:42;;;;;;;;;;;;;;;26.04;61.00;101138.50;5049252;28;1717;-89
2021/08/15 07:40:09;;;;;;;;;;;;;;;25.97;61.07;101138.38;5059032;28;1524;-91
2021/08/15 07:42:36;;;;;;;;;;;;;;;26.03;61.36;101139.53;5057592;28;1764;-90
2021/08/15 07:45:02;;;;;;;;;;;;;;;26.03;60.91;101126.00;5044231;28;1474;-89
2021/08/15 07:47:30;;;;;;;;;;;;;;;26.04;60.96;101143.94;5048171;28;1646;-89
2021/08/15 07:49:57;;;;;;;;;;;;;;;26.04;60.52;101134.97;5045511;28;1284;-90
2021/08/15 07:52:23;;;;;;;;;;;;;;;26.01;61.11;101132.63;5039231;28;1989;-91
2021/08/15 07:54:50;;;;;;;;;;;;;;;26.04;60.97;101130.38;5050602;28;1749;-89
2021/08/15 07:57:18;;;;;;;;;;;;;;;26.02;61.25;101124.28;5037929;28;1443;-89
2021/08/15 07:59:44;;;;;;;;;;;;;;;26.04;61.46;101133.09;5051369;28;1583;-90
2021/08/15 08:02:11;;;;;;;;;;;;;;;26.04;60.64;101141.22;5040133;28;1615;-89
2021/08/15 08:04:39;;;;;;;;;;;;;;;26.07;60.83;101140.06;5037519;28;1323;-91
2021/08/15 08:07:06;;;;;;;;;;;;;;;26.03;61.27;101142.25;5040332;28;1498;-88
2021/08/15 08:09:32;;;;;;;;;;;;;;;26.07;61.26;101143.59;5040913;28;1386;-89
2021/08/15 08:11:59;;;;;;;;;;;;;;;26.03;61.42;101109.72;5046418;28;1906;-90
2021/08/15 08:14:26;;;;;;;;;;;;;;;26.05;61.38;101136.66;5050268;28;1390;-89
2021/08/15 08:16:53;;;;;;;;;;;;;;;26.05;61.33;101115.81;5049081;28;1756;-90
2021/08/15 08:19:19;;;;;;;;;;;;;;;26.06;60.65;101122.91;5047183;28;1599;-92
2021/08/15 08:21:47;;;;;;;;;;;;;;;26.03;61.43;101117.03;5048474;28;1334;-89
2021/08/15 08:24:14;;;;;;;;;;;;;;;26.05;60.57;101123.97;5046494;28;1486;-89
2021/08/15 08:26:41;;;;;;;;;;;;;;;26.06;61.47;101120.22;5046870;28;1327;-88
2021/08/15 08:29:08;;;;;;;;;;;;;;;26.05;60.66;101115.81;5050796;28;1587;-87
2021/08/15 08:31:34;;;;;;;;;;;;;;;26.07;60.54;101113.78;5051300;28;1886;-88
2021/08/15 08:34:01;;;;;;;;;;;;;;;26.07;60.78;101121.09;5051896;28;1592;-89
2021/08/15 08:36:27;;;;;;;;;;;;;;;26.07;60.71;101107.53;5048809;28;1523;-87
2021/08/15 08:38:55;;;;;;;;;;;;;;;26.07;60.84;101108.38;5054269;28;1682;-87
2021/08/15 08:41:22;;;;;;;;;;;;;;;26.06;60.96;101113.94;5051087;28;1673;-88
2021/08/15 08:43:49;;;;;;;;;;;;;;;26.05;60.95;101105.00;5047071;28;1627;-87
2021/08/15 08:46:16;;;;;;;;;;;;;;;26.08;61.52;101109.19;5049219;28;1609;-89
2021/08/15 08:48:42;;;;;;;;;;;;;;;26.06;61.43;101098.53;5055645;28;1399;-90
2021/08/15 08:51:09;;;;;;;;;;;;;;;26.09;60.61;101100.06;5052974;28;1906;-90
2021/08/15 08:53:37;;;;;;;;;;;;;;;26.05;60.95;101093.31;5053120;28;1449;-87
2021/08/15 08:56:06;;;;;;;;;;;;;;;26.07;61.07;101111.06;5053830;28;1638;-88
2021/08/15 08:58:32;;;;;;;;;;;;;;;26.09;61.00;101098.19;5064685;28;1517;-87
2021/08/15 09:00:59;;;;;;;;;;;;;;;26.04;61.48;101099.72;5039408;28;1611;-88
2021/08/15 09:03:25;;;;;;;;;;;;;;;26.08;60.48;101104.63;5040884;28;1675;-88
2021/08/15 09:05:53;;;;;;;;;;;;;;;26.03;60.64;101081.78;5049577;28;1676;-89
2021/08/15 09:08:26;;;;;;;;;;;;;;;26.11;60.84;101100.75;5057785;28;1474;-87
2021/08/15 09:10:53;;;;;;;;;;;;;;;26.06;61.39;101082.28;5057200;28;1580;-87
2021/08/15 09:13:28;;;;;;;;;;;;;;;26.08;60.86;101080.22;5052791;28;1969;-87
2021/08/15 09:15:55;;;;;;;;;;;;;;;26.06;60.54;101084.97;5055913;28;1596;-88
2021/08/15 09:18:28;;;;;;;;;;;;;;;26.07;61.49;101078.56;5049682;28;1777;-87
2021/08/15 09:20:55;;;;;;;;;;;;;;;26.10;60.77;101085.47;5052491;28;1406;-88
2021/08/15 09:23:23;;;;;;;;;;;;;;;26.06;61.30;101070.59;5057589;28;1350;-88
2021/08/15 09:26:04;;;;;;;;;;;;;;;26.06;61.25;101076.84;5045953;28;1252;-88
2021/08/15 09:28:35;;;;;;;;;;;;;;;26.07;61.17;101072.28;5035004;28;1563;-89
2021/08/15 09:31:13;;;;;;;;;;;;;;;26.04;60.92;101076.19;5058082;28;1352;-88
2021/08/15 09:33:41;;;;;;;;;;;;;;;26.09;60.86;101079.22;5051205;28;1663;-88
2021/08/15 09:36:09;;;;;;;;;;;;;;;26.04;60.96;101059.91;5049928;28;1468;-89
2021/08/15 09:38:42;;;;;;;;;;;;;;;26.05;60.77;101063.50;5056161;28;1391;-90
2021/08/15 09:41:21;;;;;;;;;;;;;;;26.09;61.18;101052.13;5050012;28;1465;-88
2021/08/15 09:43:49;;;;;;;;;;;;;;;26.05;61.60;101058.91;5047700;28;1279;-88
2021/08/15 09:46:16;;;;;;;;;;;;;;;26.08;61.61;101050.41;5058038;28;1465;-88
2021/08/15 09:48:42;;;;;;;;;;;;;;;26.07;61.34;101047.91;5057357;28;1817;-89
2021/08/15 09:51:10;;;;;;;;;;;;;;;26.07;60.77;101040.63;5052979;28;1482;-88
2021/08/15 09:53:38;;;;;;;;;;;;;;;26.05;60.93;101029.09;5055230;28;1906;-90
2021/08/15 09:56:05;;;;;;;;;;;;;;;26.10;61.66;101037.56;5057200;28;1402;-87
2021/08/15 09:58:31;;;;;;;;;;;;;;;26.09;61.49;101026.88;5048304;28;1611;-87
2021/08/15 10:01:02;;;;;;;;;;;;;;;26.08;61.20;101028.72;5059045;28;1646;-90
2021/08/15 10:03:29;;;;;;;;;;;;;;;26.09;61.48;101025.03;5055059;28;1511;-89
2021/08/15 10:05:56;;;;;;;;;;;;;;;26.09;61.68;101019.59;5057163;28;1761;-88
2021/08/15 10:08:24;;;;;;;;;;;;;;;26.04;61.56;101024.69;5056472;28;1761;-87
2021/08/15 10:10:50;;;;;;;;;;;;;;;26.09;61.68;101022.31;5055538;28;1359;-89
2021/08/15 10:13:17;;;;;;;;;;;;;;;26.08;61.51;101015.19;5040131;28;1970;-88
2021/08/15 10:15:52;;;;;;;;;;;;;;;26.07;60.91;101016.22;5060744;28;1746;-88
2021/08/15 10:18:21;;;;;;;;;;;;;;;26.05;61.67;100999.28;5050027;28;1734;-87
2021/08/15 10:20:49;;;;;;;;;;;;;;;26.06;60.95;101011.81;5047948;28;1614;-87
2021/08/15 10:23:15;;;;;;;;;;;;;;;26.06;61.55;101000.97;5052713;28;1671;-87
2021/08/15 10:25:43;;;;;;;;;;;;;;;26.07;61.57;100997.25;5047420;28;1320;-88
2021/08/15 10:28:11;;;;;;;;;;;;;;;26.09;60.89;100989.78;5054086;28;1164;-87
2021/08/15 10:30:47;;;;;;;;;;;;;;;26.06;61.38;101000.97;5049318;28;1444;-89
2021/08/15 10:33:18;;;;;;;;;;;;;;;26.08;61.37;100998.09;5042920;28;1980;-90
2021/08/15 10:36:06;;;;;;;;;;;;;;;26.10;61.54;100983.34;5049397;28;1573;-89
2021/08/15 10:38:33;;;;;;;;;;;;;;;26.07;61.69;100980.97;5054517;28;1619;-88
2021/08/15 10:40:59;;;;;;;;;;;;;;;26.09;61.68;100995.19;5043657;28;1374;-89
2021/08/15 10:43:44;;;;;;;;;;;;;;;26.08;61.64;100977.25;5048554;28;1540;-87
2021/08/15 10:46:12;;;;;;;;;;;;;;;26.06;61.31;100954.91;5049883;28;1753;-88
2021/08/15 10:48:51;;;;;;;;;;;;;;;26.10;61.27;100980.66;5048731;28;1458;-87
2021/08/15 10:51:32;;;;;;;;;;;;;;;26.09;61.43;100978.09;5054525;28;1603;-87
2021/08/15 10:54:00;;;;;;;;;;;;;;;26.10;61.03;100967.09;5032388;28;1475;-87
2021/08/15 10:56:43;;;;;;;;;;;;;;;26.08;61.55;100963.69;5045699;28;1476;-87
2021/08/15 10:59:25;;;;;;;;;;;;;;;26.12;61.28;100967.75;5038083;28;1499;-87
2021/08/15 11:01:51;;;;;;;;;;;;;;;26.10;61.97;100960.81;5056164;28;1503;-89
2021/08/15 11:04:30;;;;;;;;;;;;;;;26.09;61.69;100962.69;5043511;28;1370;-87
2021/08/15 11:06:57;;;;;;;;;;;;;;;26.09;61.91;100954.56;5048629;28;1366;-89
2021/08/15 11:09:25;;;;;;;;;;;;;;;26.07;61.30;100953.88;5053290;28;1380;-88
2021/08/15 11:12:07;;;;;;;;;;;;;;;26.05;61.91;100949.66;5048523;28;1902;-87
2021/08/15 11:14:35;;;;;;;;;;;;;;;26.11;61.24;100966.06;5052988;28;1651;-88
2021/08/15 11:17:16;;;;;;;;;;;;;;;26.12;61.68;100954.22;5053700;28;1407;-90
2021/08/15 11:19:43;;;;;;;;;;;;;;;26.10;61.96;100958.97;5052367;28;1709;-88
2021/08/15 11:22:11;;;;;;;;;;;;;;;26.11;61.14;100948.97;5056845;28;1597;-87
2021/08/15 11:24:47;;;;;;;;;;;;;;;26.09;61.77;100941.00;5050591;28;1800;-89
2021/08/15 11:27:14;;;;;;;;;;;;;;;26.09;61.08;100943.72;5049418;28;1462;-87
2021/08/15 11:29:42;;;;;;;;;;;;;;;26.10;61.84;100940.00;5056678;28;1681;-89
2021/08/15 11:32:11;;;;;;;;;;;;;;;26.12;61.75;100935.22;5049602;28;1985;-87
2021/08/15 11:34:38;;;;;;;;;;;;;;;26.12;61.69;100932.53;5071395;28;1362;-88
2021/08/15 11:37:06;;;;;;;;;;;;;;;26.12;61.94;100927.09;5051955;28;1541;-88
2021/08/15 11:39:33;;;;;;;;;;;;;;;26.10;61.36;100923.72;5056618;28;1852;-89
2021/08/15 11:42:02;;;;;;;;;;;;;;;26.12;61.85;100924.41;5053346;28;1553;-89
2021/08/15 11:44:43;;;;;;;;;;;;;;;26.13;61.49;100926.06;5041311;28;1528;-89
2021/08/15 11:47:17;;;;;;;;;;;;;;;26.09;61.84;100908.47;5051076;28;1671;-87
2021/08/15 11:49:43;;;;;;;;;;;;;;;26.11;61.74;100917.28;5041202;28;1624;-88
2021/08/15 11:52:15;;;;;;;;;;;;;;;26.11;62.16;100911.84;5049332;28;1975;-88
2021/08/15 11:54:42;;;;;;;;;;;;;;;26.08;62.03;100912.19;5053707;28;1666;-87
2021/08/15 11:57:13;;;;;;;;;;;;;;;26.12;62.08;100905.41;5050698;28;1387;-89
2021/08/15 11:59:42;;;;;;;;;;;;;;;26.12;61.39;100900.00;5054949;28;1626;-90
2021/08/15 12:02:15;;;;;;;;;;;;;;;26.13;61.23;100893.53;5038787;28;1510;-87
2021/08/15 12:04:43;;;;;;;;;;;;;;;26.12;61.59;100897.28;5054423;28;1640;-88
2021/08/15 12:07:09;;;;;;;;;;;;;;;26.14;61.46;100895.25;5051661;28;1693;-88
2021/08/15 12:09:36;;;;;;;;;;;;;;;26.15;61.26;100902.34;5040157;28;1630;-89
2021/08/15 12:12:04;;;;;;;;;;;;;;;26.14;61.21;100900.66;5056146;28;1902;-89
2021/08/15 12:14:36;;;;;;;;;;;;;;;26.14;61.99;100910.63;5044026;28;1441;-90
2021/08/15 12:17:03;;;;;;;;;;;;;;;26.11;61.36;100890.16;5053909;28;1442;-87
2021/08/15 12:19:31;;;;;;;;;;;;;;;26.14;61.59;100897.09;5031934;28;1607;-88
2021/08/15 12:21:58;;;;;;;;;;;;;;;26.12;61.49;100889.16;5044570;28;1431;-87
2021/08/15 12:24:26;;;;;;;;;;;;;;;26.13;61.74;100887.28;5053967;28;1702;-88
2021/08/15 12:26:56;;;;;;;;;;;;;;;26.14;61.53;100897.97;5041106;28;1441;-88
2021/08/15 12:29:24;;;;;;;;;;;;;;;26.12;62.05;100882.88;5041900;28;1727;-89
2021/08/15 12:32:02;;;;;;;;;;;;;;;26.14;62.07;100892.53;5051163;28;1511;-88
2021/08/15 12:34:28;;;;;;;;;;;;;;;26.15;61.40;100879.81;5037608;28;1902;-88
2021/08/15 12:36:55;;;;;;;;;;;;;;;26.12;62.00;100886.44;5039284;28;1453;-87
2021/08/15 12:39:26;;;;;;;;;;;;;;;26.10;61.58;100874.94;5044153;28;1730;-89
2021/08/15 12:41:55;;;;;;;;;;;;;;;26.12;61.76;100870.19;5048416;28;1569;-87
2021/08/15 12:44:22;;;;;;;;;;;;;;;26.12;61.21;100864.78;5047324;28;1540;-86
2021/08/15 12:46:59;;;;;;;;;;;;;;;26.11;61.92;100868.47;5042312;28;1601;-86
2021/08/15 12:49:32;;;;;;;;;;;;;;;26.13;61.54;100871.84;5048876;28;1535;-87
2021/08/15 12:52:12;;;;;;;;;;;;;;;26.09;61.96;100862.41;5037088;28;1617;-89